sensor_id;sensor_type;location;lat;lon;timestamp;P1;durP1;ratioP1;P2;durP2;ratioP2
24637;SDS011;12773;50.162;8.548;2024-03-25T00:01:54;9.05;;;1.85;;
24637;SDS011;12773;50.162;8.548;2024-03-25T00:04:41;8.98;;;1.60;;
24637;SDS011;12773;50.162;8.548;2024-03-25T00:07:29;5.35;;;1.57;;
24637;SDS011;12773;50.162;8.548;2024-03-25T00:10:18;7.85;;;1.50;;
24637;SDS011;12773;50.162;8.548;2024-03-25T00:13:06;8.23;;;1.50;;
24637;SDS011;12773;50.162;8.548;2024-03-25T00:15:53;11.60;;;2.17;;
24637;SDS011;12773;50.162;8.548;2024-03-25T00:18:40;10.70;;;1.77;;
24637;SDS011;12773;50.162;8.548;2024-03-25T00:21:28;10.70;;;1.60;;
24637;SDS011;12773;50.162;8.548;2024-03-25T00:24:15;4.75;;;1.42;;
24637;SDS011;12773;50.162;8.548;2024-03-25T00:27:02;9.05;;;1.70;;
24637;SDS011;12773;50.162;8.548;2024-03-25T00:29:50;11.78;;;1.70;;
24637;SDS011;12773;50.162;8.548;2024-03-25T00:32:37;8.18;;;1.45;;
24637;SDS011;12773;50.162;8.548;2024-03-25T00:35:25;6.47;;;1.62;;
24637;SDS011;12773;50.162;8.548;2024-03-25T00:38:13;8.68;;;1.90;;
24637;SDS011;12773;50.162;8.548;2024-03-25T00:41:00;10.35;;;1.95;;
24637;SDS011;12773;50.162;8.548;2024-03-25T00:43:48;10.20;;;2.72;;
24637;SDS011;12773;50.162;8.548;2024-03-25T00:46:36;9.88;;;1.77;;
24637;SDS011;12773;50.162;8.548;2024-03-25T00:49:23;6.83;;;1.62;;
24637;SDS011;12773;50.162;8.548;2024-03-25T00:52:10;7.58;;;1.75;;
24637;SDS011;12773;50.162;8.548;2024-03-25T00:54:58;13.00;;;1.80;;
24637;SDS011;12773;50.162;8.548;2024-03-25T00:57:45;8.38;;;1.85;;
24637;SDS011;12773;50.162;8.548;2024-03-25T01:00:34;6.80;;;2.33;;
24637;SDS011;12773;50.162;8.548;2024-03-25T01:03:21;8.30;;;2.00;;
24637;SDS011;12773;50.162;8.548;2024-03-25T01:06:09;8.65;;;2.00;;
24637;SDS011;12773;50.162;8.548;2024-03-25T01:08:57;8.43;;;1.70;;
24637;SDS011;12773;50.162;8.548;2024-03-25T01:11:44;4.42;;;1.42;;
24637;SDS011;12773;50.162;8.548;2024-03-25T01:14:32;9.53;;;1.62;;
24637;SDS011;12773;50.162;8.548;2024-03-25T01:17:19;7.35;;;1.80;;
24637;SDS011;12773;50.162;8.548;2024-03-25T01:20:07;6.28;;;1.80;;
24637;SDS011;12773;50.162;8.548;2024-03-25T01:22:55;9.23;;;1.35;;
24637;SDS011;12773;50.162;8.548;2024-03-25T01:25:42;9.10;;;1.80;;
24637;SDS011;12773;50.162;8.548;2024-03-25T01:28:30;9.88;;;1.55;;
24637;SDS011;12773;50.162;8.548;2024-03-25T01:31:18;10.08;;;2.02;;
24637;SDS011;12773;50.162;8.548;2024-03-25T01:34:06;10.28;;;1.67;;
24637;SDS011;12773;50.162;8.548;2024-03-25T01:36:53;12.88;;;1.82;;
24637;SDS011;12773;50.162;8.548;2024-03-25T01:39:41;7.78;;;1.90;;
24637;SDS011;12773;50.162;8.548;2024-03-25T01:42:28;13.93;;;2.45;;
24637;SDS011;12773;50.162;8.548;2024-03-25T01:45:15;7.58;;;2.10;;
24637;SDS011;12773;50.162;8.548;2024-03-25T01:48:04;12.78;;;2.05;;
24637;SDS011;12773;50.162;8.548;2024-03-25T01:50:53;6.42;;;1.90;;
24637;SDS011;12773;50.162;8.548;2024-03-25T01:53:42;6.83;;;1.70;;
24637;SDS011;12773;50.162;8.548;2024-03-25T01:56:31;12.18;;;2.30;;
24637;SDS011;12773;50.162;8.548;2024-03-25T01:59:20;13.13;;;1.82;;
24637;SDS011;12773;50.162;8.548;2024-03-25T02:02:08;8.55;;;2.25;;
24637;SDS011;12773;50.162;8.548;2024-03-25T02:04:56;13.75;;;2.12;;
24637;SDS011;12773;50.162;8.548;2024-03-25T02:07:44;8.40;;;2.33;;
24637;SDS011;12773;50.162;8.548;2024-03-25T02:10:32;11.15;;;1.95;;
24637;SDS011;12773;50.162;8.548;2024-03-25T02:13:20;6.72;;;2.20;;
24637;SDS011;12773;50.162;8.548;2024-03-25T02:16:08;9.55;;;2.15;;
24637;SDS011;12773;50.162;8.548;2024-03-25T02:18:55;12.80;;;2.12;;
24637;SDS011;12773;50.162;8.548;2024-03-25T02:21:43;7.60;;;2.17;;
24637;SDS011;12773;50.162;8.548;2024-03-25T02:24:30;10.45;;;2.08;;
24637;SDS011;12773;50.162;8.548;2024-03-25T02:27:19;10.32;;;2.00;;
24637;SDS011;12773;50.162;8.548;2024-03-25T02:30:07;9.60;;;2.52;;
24637;SDS011;12773;50.162;8.548;2024-03-25T02:32:57;10.25;;;1.82;;
24637;SDS011;12773;50.162;8.548;2024-03-25T02:35:45;11.73;;;2.60;;
24637;SDS011;12773;50.162;8.548;2024-03-25T02:38:32;20.60;;;3.00;;
24637;SDS011;12773;50.162;8.548;2024-03-25T02:41:20;9.83;;;2.00;;
24637;SDS011;12773;50.162;8.548;2024-03-25T02:44:09;6.47;;;1.85;;
24637;SDS011;12773;50.162;8.548;2024-03-25T02:46:56;10.05;;;2.12;;
24637;SDS011;12773;50.162;8.548;2024-03-25T02:49:45;9.53;;;1.90;;
24637;SDS011;12773;50.162;8.548;2024-03-25T02:52:33;15.90;;;2.17;;
24637;SDS011;12773;50.162;8.548;2024-03-25T02:55:20;14.30;;;2.12;;
24637;SDS011;12773;50.162;8.548;2024-03-25T02:58:08;10.60;;;1.70;;
24637;SDS011;12773;50.162;8.548;2024-03-25T03:00:55;10.38;;;2.12;;
24637;SDS011;12773;50.162;8.548;2024-03-25T03:03:43;11.40;;;2.12;;
24637;SDS011;12773;50.162;8.548;2024-03-25T03:06:31;12.13;;;2.10;;
24637;SDS011;12773;50.162;8.548;2024-03-25T03:09:18;9.60;;;2.12;;
24637;SDS011;12773;50.162;8.548;2024-03-25T03:12:06;7.33;;;2.02;;
24637;SDS011;12773;50.162;8.548;2024-03-25T03:14:53;11.08;;;2.25;;
24637;SDS011;12773;50.162;8.548;2024-03-25T03:17:41;13.83;;;2.47;;
24637;SDS011;12773;50.162;8.548;2024-03-25T03:20:29;6.58;;;2.33;;
24637;SDS011;12773;50.162;8.548;2024-03-25T03:23:16;8.23;;;1.72;;
24637;SDS011;12773;50.162;8.548;2024-03-25T03:26:03;8.93;;;2.20;;
24637;SDS011;12773;50.162;8.548;2024-03-25T03:28:51;18.37;;;5.90;;
24637;SDS011;12773;50.162;8.548;2024-03-25T03:31:41;22.62;;;4.47;;
24637;SDS011;12773;50.162;8.548;2024-03-25T03:34:29;9.15;;;2.30;;
24637;SDS011;12773;50.162;8.548;2024-03-25T03:37:17;17.90;;;2.35;;
24637;SDS011;12773;50.162;8.548;2024-03-25T03:40:04;9.30;;;2.15;;
24637;SDS011;12773;50.162;8.548;2024-03-25T03:42:52;4.60;;;1.57;;
24637;SDS011;12773;50.162;8.548;2024-03-25T03:45:40;15.35;;;2.15;;
24637;SDS011;12773;50.162;8.548;2024-03-25T03:48:28;11.93;;;2.17;;
24637;SDS011;12773;50.162;8.548;2024-03-25T03:51:16;11.70;;;2.10;;
24637;SDS011;12773;50.162;8.548;2024-03-25T03:54:03;8.30;;;2.42;;
24637;SDS011;12773;50.162;8.548;2024-03-25T03:56:51;13.88;;;2.47;;
24637;SDS011;12773;50.162;8.548;2024-03-25T03:59:38;10.70;;;2.58;;
24637;SDS011;12773;50.162;8.548;2024-03-25T04:02:27;12.13;;;2.15;;
24637;SDS011;12773;50.162;8.548;2024-03-25T04:05:15;10.32;;;2.20;;
24637;SDS011;12773;50.162;8.548;2024-03-25T04:08:02;9.63;;;1.70;;
24637;SDS011;12773;50.162;8.548;2024-03-25T04:10:50;10.70;;;1.87;;
24637;SDS011;12773;50.162;8.548;2024-03-25T04:13:38;8.50;;;2.33;;
24637;SDS011;12773;50.162;8.548;2024-03-25T04:16:26;10.95;;;2.50;;
24637;SDS011;12773;50.162;8.548;2024-03-25T04:19:15;12.13;;;2.08;;
24637;SDS011;12773;50.162;8.548;2024-03-25T04:22:02;7.72;;;2.12;;
24637;SDS011;12773;50.162;8.548;2024-03-25T04:24:49;11.35;;;2.15;;
24637;SDS011;12773;50.162;8.548;2024-03-25T04:27:43;11.50;;;1.77;;
24637;SDS011;12773;50.162;8.548;2024-03-25T04:30:31;13.65;;;2.12;;
24637;SDS011;12773;50.162;8.548;2024-03-25T04:33:19;12.58;;;2.77;;
24637;SDS011;12773;50.162;8.548;2024-03-25T04:36:08;15.50;;;2.58;;
24637;SDS011;12773;50.162;8.548;2024-03-25T04:38:55;14.43;;;2.55;;
24637;SDS011;12773;50.162;8.548;2024-03-25T04:41:43;8.93;;;2.80;;
24637;SDS011;12773;50.162;8.548;2024-03-25T04:44:30;10.40;;;2.45;;
24637;SDS011;12773;50.162;8.548;2024-03-25T04:47:18;12.07;;;2.40;;
24637;SDS011;12773;50.162;8.548;2024-03-25T04:50:05;10.32;;;2.10;;
24637;SDS011;12773;50.162;8.548;2024-03-25T04:52:53;13.95;;;2.60;;
24637;SDS011;12773;50.162;8.548;2024-03-25T04:55:41;12.33;;;2.52;;
24637;SDS011;12773;50.162;8.548;2024-03-25T04:58:29;20.45;;;3.20;;
24637;SDS011;12773;50.162;8.548;2024-03-25T05:01:16;8.95;;;2.58;;
24637;SDS011;12773;50.162;8.548;2024-03-25T05:04:03;11.22;;;2.45;;
24637;SDS011;12773;50.162;8.548;2024-03-25T05:06:52;16.90;;;2.87;;
24637;SDS011;12773;50.162;8.548;2024-03-25T05:09:40;10.30;;;2.50;;
24637;SDS011;12773;50.162;8.548;2024-03-25T05:12:27;9.73;;;2.42;;
24637;SDS011;12773;50.162;8.548;2024-03-25T05:15:16;13.88;;;2.30;;
24637;SDS011;12773;50.162;8.548;2024-03-25T05:18:03;13.72;;;2.77;;
24637;SDS011;12773;50.162;8.548;2024-03-25T05:20:51;10.93;;;2.50;;
24637;SDS011;12773;50.162;8.548;2024-03-25T05:23:38;8.78;;;3.02;;
24637;SDS011;12773;50.162;8.548;2024-03-25T05:26:26;12.53;;;3.10;;
24637;SDS011;12773;50.162;8.548;2024-03-25T05:29:13;13.60;;;2.95;;
24637;SDS011;12773;50.162;8.548;2024-03-25T05:32:01;16.35;;;3.15;;
24637;SDS011;12773;50.162;8.548;2024-03-25T05:34:49;12.58;;;2.58;;
24637;SDS011;12773;50.162;8.548;2024-03-25T05:37:36;13.55;;;3.12;;
24637;SDS011;12773;50.162;8.548;2024-03-25T05:40:24;8.15;;;2.95;;
24637;SDS011;12773;50.162;8.548;2024-03-25T05:43:11;8.75;;;2.72;;
24637;SDS011;12773;50.162;8.548;2024-03-25T05:45:59;9.55;;;2.75;;
24637;SDS011;12773;50.162;8.548;2024-03-25T05:48:46;15.78;;;3.12;;
24637;SDS011;12773;50.162;8.548;2024-03-25T05:51:34;8.20;;;3.00;;
24637;SDS011;12773;50.162;8.548;2024-03-25T05:54:22;14.35;;;3.50;;
24637;SDS011;12773;50.162;8.548;2024-03-25T05:57:09;10.60;;;3.35;;
24637;SDS011;12773;50.162;8.548;2024-03-25T05:59:57;10.93;;;3.00;;
24637;SDS011;12773;50.162;8.548;2024-03-25T06:02:44;11.55;;;3.30;;
24637;SDS011;12773;50.162;8.548;2024-03-25T06:05:32;10.70;;;3.35;;
24637;SDS011;12773;50.162;8.548;2024-03-25T06:08:20;11.12;;;3.42;;
24637;SDS011;12773;50.162;8.548;2024-03-25T06:11:09;17.55;;;3.87;;
24637;SDS011;12773;50.162;8.548;2024-03-25T06:13:57;12.93;;;3.02;;
24637;SDS011;12773;50.162;8.548;2024-03-25T06:16:44;10.85;;;3.72;;
24637;SDS011;12773;50.162;8.548;2024-03-25T06:19:32;13.88;;;3.12;;
24637;SDS011;12773;50.162;8.548;2024-03-25T06:22:19;17.10;;;4.58;;
24637;SDS011;12773;50.162;8.548;2024-03-25T06:25:07;16.50;;;3.30;;
24637;SDS011;12773;50.162;8.548;2024-03-25T06:27:55;15.38;;;4.80;;
24637;SDS011;12773;50.162;8.548;2024-03-25T06:30:42;16.85;;;3.20;;
24637;SDS011;12773;50.162;8.548;2024-03-25T06:33:48;13.38;;;3.17;;
24637;SDS011;12773;50.162;8.548;2024-03-25T06:36:54;14.13;;;3.42;;
24637;SDS011;12773;50.162;8.548;2024-03-25T06:39:41;20.97;;;3.67;;
24637;SDS011;12773;50.162;8.548;2024-03-25T06:42:29;15.75;;;3.40;;
24637;SDS011;12773;50.162;8.548;2024-03-25T06:45:17;14.35;;;3.77;;
24637;SDS011;12773;50.162;8.548;2024-03-25T06:48:04;12.85;;;3.35;;
24637;SDS011;12773;50.162;8.548;2024-03-25T06:50:55;11.68;;;3.80;;
24637;SDS011;12773;50.162;8.548;2024-03-25T06:53:44;11.60;;;3.80;;
24637;SDS011;12773;50.162;8.548;2024-03-25T06:56:31;12.80;;;3.60;;
24637;SDS011;12773;50.162;8.548;2024-03-25T06:59:18;18.40;;;3.35;;
24637;SDS011;12773;50.162;8.548;2024-03-25T07:02:06;13.58;;;3.47;;
24637;SDS011;12773;50.162;8.548;2024-03-25T07:04:54;12.30;;;3.15;;
24637;SDS011;12773;50.162;8.548;2024-03-25T07:07:42;7.85;;;2.60;;
24637;SDS011;12773;50.162;8.548;2024-03-25T07:10:29;12.60;;;3.33;;
24637;SDS011;12773;50.162;8.548;2024-03-25T07:13:17;12.03;;;3.10;;
24637;SDS011;12773;50.162;8.548;2024-03-25T07:16:04;10.82;;;3.12;;
24637;SDS011;12773;50.162;8.548;2024-03-25T07:18:53;13.45;;;3.20;;
24637;SDS011;12773;50.162;8.548;2024-03-25T07:21:41;10.43;;;3.10;;
24637;SDS011;12773;50.162;8.548;2024-03-25T07:24:28;13.40;;;2.65;;
24637;SDS011;12773;50.162;8.548;2024-03-25T07:27:16;18.00;;;3.40;;
24637;SDS011;12773;50.162;8.548;2024-03-25T07:30:03;23.62;;;3.17;;
24637;SDS011;12773;50.162;8.548;2024-03-25T07:32:52;10.32;;;2.50;;
24637;SDS011;12773;50.162;8.548;2024-03-25T07:35:39;11.63;;;2.98;;
24637;SDS011;12773;50.162;8.548;2024-03-25T07:38:26;13.85;;;3.17;;
24637;SDS011;12773;50.162;8.548;2024-03-25T07:41:14;11.18;;;2.72;;
24637;SDS011;12773;50.162;8.548;2024-03-25T07:44:02;11.78;;;2.60;;
24637;SDS011;12773;50.162;8.548;2024-03-25T07:46:50;8.90;;;2.52;;
24637;SDS011;12773;50.162;8.548;2024-03-25T07:49:38;9.03;;;2.33;;
24637;SDS011;12773;50.162;8.548;2024-03-25T07:52:25;11.78;;;2.75;;
24637;SDS011;12773;50.162;8.548;2024-03-25T07:55:13;12.25;;;2.90;;
24637;SDS011;12773;50.162;8.548;2024-03-25T07:58:01;14.45;;;2.62;;
24637;SDS011;12773;50.162;8.548;2024-03-25T08:00:49;14.05;;;2.30;;
24637;SDS011;12773;50.162;8.548;2024-03-25T08:03:36;10.32;;;2.35;;
24637;SDS011;12773;50.162;8.548;2024-03-25T08:06:24;10.28;;;2.20;;
24637;SDS011;12773;50.162;8.548;2024-03-25T08:09:11;10.70;;;2.62;;
24637;SDS011;12773;50.162;8.548;2024-03-25T08:12:00;7.83;;;2.00;;
24637;SDS011;12773;50.162;8.548;2024-03-25T08:14:47;15.78;;;2.65;;
24637;SDS011;12773;50.162;8.548;2024-03-25T08:17:35;12.58;;;2.47;;
24637;SDS011;12773;50.162;8.548;2024-03-25T08:20:23;16.07;;;4.62;;
24637;SDS011;12773;50.162;8.548;2024-03-25T08:23:10;18.80;;;2.60;;
24637;SDS011;12773;50.162;8.548;2024-03-25T08:25:57;10.88;;;2.50;;
24637;SDS011;12773;50.162;8.548;2024-03-25T08:28:46;15.72;;;2.65;;
24637;SDS011;12773;50.162;8.548;2024-03-25T08:31:34;15.00;;;2.90;;
24637;SDS011;12773;50.162;8.548;2024-03-25T08:34:22;15.28;;;2.42;;
24637;SDS011;12773;50.162;8.548;2024-03-25T08:37:09;11.93;;;2.30;;
24637;SDS011;12773;50.162;8.548;2024-03-25T08:39:56;14.47;;;2.35;;
24637;SDS011;12773;50.162;8.548;2024-03-25T08:42:44;10.13;;;2.25;;
24637;SDS011;12773;50.162;8.548;2024-03-25T08:45:33;15.25;;;1.90;;
24637;SDS011;12773;50.162;8.548;2024-03-25T08:48:21;8.90;;;2.08;;
24637;SDS011;12773;50.162;8.548;2024-03-25T08:51:09;16.65;;;1.85;;
24637;SDS011;12773;50.162;8.548;2024-03-25T08:53:57;13.85;;;2.20;;
24637;SDS011;12773;50.162;8.548;2024-03-25T08:56:44;15.35;;;3.17;;
24637;SDS011;12773;50.162;8.548;2024-03-25T08:59:32;24.07;;;6.47;;
24637;SDS011;12773;50.162;8.548;2024-03-25T09:02:19;11.48;;;2.25;;
24637;SDS011;12773;50.162;8.548;2024-03-25T09:05:07;14.75;;;1.90;;
24637;SDS011;12773;50.162;8.548;2024-03-25T09:07:55;10.43;;;1.87;;
24637;SDS011;12773;50.162;8.548;2024-03-25T09:10:44;16.17;;;2.02;;
24637;SDS011;12773;50.162;8.548;2024-03-25T09:13:52;10.68;;;2.45;;
24637;SDS011;12773;50.162;8.548;2024-03-25T09:16:39;14.40;;;1.70;;
24637;SDS011;12773;50.162;8.548;2024-03-25T09:19:27;9.80;;;1.72;;
24637;SDS011;12773;50.162;8.548;2024-03-25T09:22:14;20.50;;;2.17;;
24637;SDS011;12773;50.162;8.548;2024-03-25T09:25:01;11.15;;;1.72;;
24637;SDS011;12773;50.162;8.548;2024-03-25T09:27:50;6.78;;;1.80;;
24637;SDS011;12773;50.162;8.548;2024-03-25T09:30:38;9.48;;;1.72;;
24637;SDS011;12773;50.162;8.548;2024-03-25T09:33:25;13.88;;;1.82;;
24637;SDS011;12773;50.162;8.548;2024-03-25T09:36:13;8.90;;;1.42;;
24637;SDS011;12773;50.162;8.548;2024-03-25T09:39:00;9.08;;;1.87;;
24637;SDS011;12773;50.162;8.548;2024-03-25T09:41:50;12.20;;;2.00;;
24637;SDS011;12773;50.162;8.548;2024-03-25T09:44:39;9.15;;;1.70;;
24637;SDS011;12773;50.162;8.548;2024-03-25T09:47:27;9.05;;;1.67;;
24637;SDS011;12773;50.162;8.548;2024-03-25T09:50:15;11.80;;;1.75;;
24637;SDS011;12773;50.162;8.548;2024-03-25T09:53:04;7.42;;;1.90;;
24637;SDS011;12773;50.162;8.548;2024-03-25T09:55:51;13.55;;;1.87;;
24637;SDS011;12773;50.162;8.548;2024-03-25T09:58:39;11.45;;;1.62;;
24637;SDS011;12773;50.162;8.548;2024-03-25T10:01:28;15.35;;;1.87;;
24637;SDS011;12773;50.162;8.548;2024-03-25T10:04:16;13.22;;;3.12;;
24637;SDS011;12773;50.162;8.548;2024-03-25T10:07:03;13.45;;;2.50;;
24637;SDS011;12773;50.162;8.548;2024-03-25T10:09:51;9.25;;;1.65;;
24637;SDS011;12773;50.162;8.548;2024-03-25T10:12:38;10.95;;;2.20;;
24637;SDS011;12773;50.162;8.548;2024-03-25T10:15:26;9.00;;;1.87;;
24637;SDS011;12773;50.162;8.548;2024-03-25T10:18:14;8.60;;;1.75;;
24637;SDS011;12773;50.162;8.548;2024-03-25T10:21:02;6.95;;;1.40;;
24637;SDS011;12773;50.162;8.548;2024-03-25T10:23:49;6.42;;;1.75;;
24637;SDS011;12773;50.162;8.548;2024-03-25T10:26:38;7.15;;;1.60;;
24637;SDS011;12773;50.162;8.548;2024-03-25T10:29:26;6.72;;;1.67;;
24637;SDS011;12773;50.162;8.548;2024-03-25T10:32:14;15.00;;;2.08;;
24637;SDS011;12773;50.162;8.548;2024-03-25T10:35:02;8.78;;;2.05;;
24637;SDS011;12773;50.162;8.548;2024-03-25T10:37:49;10.05;;;1.22;;
24637;SDS011;12773;50.162;8.548;2024-03-25T10:40:38;8.15;;;1.25;;
24637;SDS011;12773;50.162;8.548;2024-03-25T10:43:26;12.23;;;1.55;;
24637;SDS011;12773;50.162;8.548;2024-03-25T10:46:17;11.15;;;1.52;;
24637;SDS011;12773;50.162;8.548;2024-03-25T10:49:16;10.50;;;1.42;;
24637;SDS011;12773;50.162;8.548;2024-03-25T10:52:06;8.78;;;1.47;;
24637;SDS011;12773;50.162;8.548;2024-03-25T10:54:55;8.78;;;1.60;;
24637;SDS011;12773;50.162;8.548;2024-03-25T10:57:44;10.05;;;1.50;;
24637;SDS011;12773;50.162;8.548;2024-03-25T11:00:32;13.55;;;1.47;;
24637;SDS011;12773;50.162;8.548;2024-03-25T11:03:25;10.10;;;1.27;;
24637;SDS011;12773;50.162;8.548;2024-03-25T11:06:14;11.45;;;1.45;;
24637;SDS011;12773;50.162;8.548;2024-03-25T11:09:02;11.15;;;1.27;;
24637;SDS011;12773;50.162;8.548;2024-03-25T11:11:49;16.12;;;1.80;;
24637;SDS011;12773;50.162;8.548;2024-03-25T11:14:38;6.42;;;1.65;;
24637;SDS011;12773;50.162;8.548;2024-03-25T11:17:27;13.80;;;1.60;;
24637;SDS011;12773;50.162;8.548;2024-03-25T11:20:20;19.32;;;1.70;;
24637;SDS011;12773;50.162;8.548;2024-03-25T11:23:07;8.45;;;1.32;;
24637;SDS011;12773;50.162;8.548;2024-03-25T11:25:56;7.85;;;1.22;;
24637;SDS011;12773;50.162;8.548;2024-03-25T11:28:44;7.53;;;1.42;;
24637;SDS011;12773;50.162;8.548;2024-03-25T11:31:37;5.70;;;1.42;;
24637;SDS011;12773;50.162;8.548;2024-03-25T11:34:25;8.08;;;1.67;;
24637;SDS011;12773;50.162;8.548;2024-03-25T11:37:12;5.03;;;1.07;;
24637;SDS011;12773;50.162;8.548;2024-03-25T11:40:03;7.22;;;1.10;;
24637;SDS011;12773;50.162;8.548;2024-03-25T11:42:52;9.20;;;1.12;;
24637;SDS011;12773;50.162;8.548;2024-03-25T11:45:39;4.08;;;1.30;;
24637;SDS011;12773;50.162;8.548;2024-03-25T11:48:28;4.60;;;1.20;;
24637;SDS011;12773;50.162;8.548;2024-03-25T11:51:19;9.08;;;1.12;;
24637;SDS011;12773;50.162;8.548;2024-03-25T11:54:07;8.28;;;1.57;;
24637;SDS011;12773;50.162;8.548;2024-03-25T11:56:56;11.73;;;1.47;;
24637;SDS011;12773;50.162;8.548;2024-03-25T11:59:44;12.93;;;1.47;;
24637;SDS011;12773;50.162;8.548;2024-03-25T12:02:31;9.63;;;1.45;;
24637;SDS011;12773;50.162;8.548;2024-03-25T12:05:21;8.93;;;1.30;;
24637;SDS011;12773;50.162;8.548;2024-03-25T12:08:09;6.40;;;1.07;;
24637;SDS011;12773;50.162;8.548;2024-03-25T12:10:57;7.33;;;1.32;;
24637;SDS011;12773;50.162;8.548;2024-03-25T12:14:04;5.62;;;1.20;;
24637;SDS011;12773;50.162;8.548;2024-03-25T12:16:53;5.80;;;1.25;;
24637;SDS011;12773;50.162;8.548;2024-03-25T12:19:40;8.70;;;1.22;;
24637;SDS011;12773;50.162;8.548;2024-03-25T12:22:28;10.10;;;1.62;;
24637;SDS011;12773;50.162;8.548;2024-03-25T12:25:18;10.03;;;1.45;;
24637;SDS011;12773;50.162;8.548;2024-03-25T12:28:10;7.78;;;1.50;;
24637;SDS011;12773;50.162;8.548;2024-03-25T12:30:57;6.95;;;1.40;;
24637;SDS011;12773;50.162;8.548;2024-03-25T12:33:44;6.75;;;1.40;;
24637;SDS011;12773;50.162;8.548;2024-03-25T12:36:35;5.85;;;1.30;;
24637;SDS011;12773;50.162;8.548;2024-03-25T12:39:22;9.23;;;1.47;;
24637;SDS011;12773;50.162;8.548;2024-03-25T12:42:09;4.42;;;1.52;;
24637;SDS011;12773;50.162;8.548;2024-03-25T12:44:57;5.45;;;1.50;;
24637;SDS011;12773;50.162;8.548;2024-03-25T12:47:44;8.00;;;1.60;;
24637;SDS011;12773;50.162;8.548;2024-03-25T12:50:32;4.78;;;1.25;;
24637;SDS011;12773;50.162;8.548;2024-03-25T12:53:20;6.22;;;1.80;;
24637;SDS011;12773;50.162;8.548;2024-03-25T12:56:07;7.62;;;1.75;;
24637;SDS011;12773;50.162;8.548;2024-03-25T12:58:55;9.28;;;1.50;;
24637;SDS011;12773;50.162;8.548;2024-03-25T13:01:42;9.83;;;1.80;;
24637;SDS011;12773;50.162;8.548;2024-03-25T13:04:30;11.20;;;1.65;;
24637;SDS011;12773;50.162;8.548;2024-03-25T13:07:17;8.78;;;1.50;;
24637;SDS011;12773;50.162;8.548;2024-03-25T13:10:05;7.75;;;1.42;;
24637;SDS011;12773;50.162;8.548;2024-03-25T13:12:53;6.47;;;1.67;;
24637;SDS011;12773;50.162;8.548;2024-03-25T13:15:41;11.05;;;1.60;;
24637;SDS011;12773;50.162;8.548;2024-03-25T13:18:29;9.48;;;1.50;;
24637;SDS011;12773;50.162;8.548;2024-03-25T13:21:16;8.55;;;1.80;;
24637;SDS011;12773;50.162;8.548;2024-03-25T13:24:04;10.88;;;1.87;;
24637;SDS011;12773;50.162;8.548;2024-03-25T13:26:52;9.68;;;1.67;;
24637;SDS011;12773;50.162;8.548;2024-03-25T13:29:39;8.28;;;1.50;;
24637;SDS011;12773;50.162;8.548;2024-03-25T13:32:27;7.70;;;1.32;;
24637;SDS011;12773;50.162;8.548;2024-03-25T13:35:15;8.20;;;1.75;;
24637;SDS011;12773;50.162;8.548;2024-03-25T13:38:02;9.73;;;1.52;;
24637;SDS011;12773;50.162;8.548;2024-03-25T13:40:50;10.65;;;1.47;;
24637;SDS011;12773;50.162;8.548;2024-03-25T13:43:43;8.83;;;1.57;;
24637;SDS011;12773;50.162;8.548;2024-03-25T13:46:31;9.95;;;1.50;;
24637;SDS011;12773;50.162;8.548;2024-03-25T13:49:19;6.70;;;1.40;;
24637;SDS011;12773;50.162;8.548;2024-03-25T13:52:08;6.80;;;1.62;;
24637;SDS011;12773;50.162;8.548;2024-03-25T13:54:55;5.97;;;1.45;;
24637;SDS011;12773;50.162;8.548;2024-03-25T13:57:44;6.87;;;1.05;;
24637;SDS011;12773;50.162;8.548;2024-03-25T14:00:31;7.80;;;1.40;;
24637;SDS011;12773;50.162;8.548;2024-03-25T14:03:19;7.08;;;1.40;;
24637;SDS011;12773;50.162;8.548;2024-03-25T14:06:06;9.50;;;1.55;;
24637;SDS011;12773;50.162;8.548;2024-03-25T14:08:54;6.45;;;1.65;;
24637;SDS011;12773;50.162;8.548;2024-03-25T14:11:41;7.10;;;1.35;;
24637;SDS011;12773;50.162;8.548;2024-03-25T14:14:29;5.50;;;1.12;;
24637;SDS011;12773;50.162;8.548;2024-03-25T14:17:16;6.35;;;1.25;;
24637;SDS011;12773;50.162;8.548;2024-03-25T14:20:05;7.87;;;1.07;;
24637;SDS011;12773;50.162;8.548;2024-03-25T14:22:54;9.55;;;1.57;;
24637;SDS011;12773;50.162;8.548;2024-03-25T14:25:41;8.18;;;1.52;;
24637;SDS011;12773;50.162;8.548;2024-03-25T14:28:29;8.43;;;1.20;;
24637;SDS011;12773;50.162;8.548;2024-03-25T14:31:18;5.70;;;1.17;;
24637;SDS011;12773;50.162;8.548;2024-03-25T14:34:05;6.08;;;1.42;;
24637;SDS011;12773;50.162;8.548;2024-03-25T14:36:54;5.20;;;1.10;;
24637;SDS011;12773;50.162;8.548;2024-03-25T14:39:42;6.28;;;1.20;;
24637;SDS011;12773;50.162;8.548;2024-03-25T14:42:29;7.65;;;1.47;;
24637;SDS011;12773;50.162;8.548;2024-03-25T14:45:18;5.03;;;0.93;;
24637;SDS011;12773;50.162;8.548;2024-03-25T14:48:06;8.08;;;1.27;;
24637;SDS011;12773;50.162;8.548;2024-03-25T14:50:54;6.92;;;1.60;;
24637;SDS011;12773;50.162;8.548;2024-03-25T14:53:41;6.20;;;1.27;;
24637;SDS011;12773;50.162;8.548;2024-03-25T14:56:28;6.80;;;1.05;;
24637;SDS011;12773;50.162;8.548;2024-03-25T14:59:16;4.25;;;1.27;;
24637;SDS011;12773;50.162;8.548;2024-03-25T15:02:03;5.42;;;1.22;;
24637;SDS011;12773;50.162;8.548;2024-03-25T15:04:51;8.08;;;1.87;;
24637;SDS011;12773;50.162;8.548;2024-03-25T15:07:40;11.40;;;1.40;;
24637;SDS011;12773;50.162;8.548;2024-03-25T15:10:28;5.90;;;1.45;;
24637;SDS011;12773;50.162;8.548;2024-03-25T15:13:15;7.62;;;1.50;;
24637;SDS011;12773;50.162;8.548;2024-03-25T15:16:06;7.55;;;1.32;;
24637;SDS011;12773;50.162;8.548;2024-03-25T15:18:54;5.97;;;1.30;;
24637;SDS011;12773;50.162;8.548;2024-03-25T15:21:41;6.72;;;1.45;;
24637;SDS011;12773;50.162;8.548;2024-03-25T15:24:29;8.38;;;1.50;;
24637;SDS011;12773;50.162;8.548;2024-03-25T15:27:16;9.28;;;1.52;;
24637;SDS011;12773;50.162;8.548;2024-03-25T15:30:04;6.65;;;1.47;;
24637;SDS011;12773;50.162;8.548;2024-03-25T15:32:53;7.12;;;1.55;;
24637;SDS011;12773;50.162;8.548;2024-03-25T15:35:41;9.23;;;1.72;;
24637;SDS011;12773;50.162;8.548;2024-03-25T15:38:28;5.47;;;1.20;;
24637;SDS011;12773;50.162;8.548;2024-03-25T15:41:16;6.42;;;1.67;;
24637;SDS011;12773;50.162;8.548;2024-03-25T15:44:04;4.40;;;1.25;;
24637;SDS011;12773;50.162;8.548;2024-03-25T15:46:52;5.28;;;1.25;;
24637;SDS011;12773;50.162;8.548;2024-03-25T15:49:39;9.18;;;1.70;;
24637;SDS011;12773;50.162;8.548;2024-03-25T15:52:29;11.05;;;1.77;;
24637;SDS011;12773;50.162;8.548;2024-03-25T15:55:16;4.50;;;1.50;;
24637;SDS011;12773;50.162;8.548;2024-03-25T15:58:04;8.50;;;1.47;;
24637;SDS011;12773;50.162;8.548;2024-03-25T16:00:51;6.95;;;1.15;;
24637;SDS011;12773;50.162;8.548;2024-03-25T16:03:39;5.62;;;1.22;;
24637;SDS011;12773;50.162;8.548;2024-03-25T16:06:27;5.08;;;1.37;;
24637;SDS011;12773;50.162;8.548;2024-03-25T16:09:14;10.32;;;1.60;;
24637;SDS011;12773;50.162;8.548;2024-03-25T16:12:04;4.58;;;1.10;;
24637;SDS011;12773;50.162;8.548;2024-03-25T16:14:52;7.33;;;1.20;;
24637;SDS011;12773;50.162;8.548;2024-03-25T16:17:41;4.95;;;1.07;;
24637;SDS011;12773;50.162;8.548;2024-03-25T16:20:30;7.75;;;1.40;;
24637;SDS011;12773;50.162;8.548;2024-03-25T16:23:19;8.28;;;1.30;;
24637;SDS011;12773;50.162;8.548;2024-03-25T16:26:07;4.60;;;0.90;;
24637;SDS011;12773;50.162;8.548;2024-03-25T16:28:55;7.95;;;1.40;;
24637;SDS011;12773;50.162;8.548;2024-03-25T16:31:43;7.20;;;1.00;;
24637;SDS011;12773;50.162;8.548;2024-03-25T16:34:30;5.05;;;1.12;;
24637;SDS011;12773;50.162;8.548;2024-03-25T16:37:18;13.65;;;1.87;;
24637;SDS011;12773;50.162;8.548;2024-03-25T16:40:06;10.35;;;1.45;;
24637;SDS011;12773;50.162;8.548;2024-03-25T16:42:53;9.50;;;1.77;;
24637;SDS011;12773;50.162;8.548;2024-03-25T16:45:41;8.13;;;1.75;;